createdAt,value
2019-05-23T00:00:58.310Z,9.55
2019-05-23T00:03:59.043Z,9.55
2019-05-23T00:06:56.197Z,9.47
2019-05-23T00:09:52.755Z,9.42
2019-05-23T00:13:19.713Z,9.39
2019-05-23T00:16:16.030Z,9.33
2019-05-23T00:19:12.633Z,9.30
2019-05-23T00:22:08.991Z,9.28
2019-05-23T00:25:10.789Z,9.27
2019-05-23T00:28:08.529Z,9.30
2019-05-23T00:31:10.471Z,9.30
2019-05-23T00:34:06.278Z,9.27
2019-05-23T00:37:07.253Z,9.25
2019-05-23T00:40:10.047Z,9.21
2019-05-23T00:43:06.797Z,9.15
2019-05-23T00:46:04.271Z,9.11
2019-05-23T00:49:00.052Z,9.09
2019-05-23T00:52:03.548Z,9.10
2019-05-23T00:54:58.565Z,9.08
2019-05-23T00:57:55.916Z,9.03
2019-05-23T01:00:51.426Z,9.03
2019-05-23T01:03:47.631Z,8.97
2019-05-23T01:06:44.137Z,8.90
2019-05-23T01:09:39.573Z,8.89
2019-05-23T01:12:37.283Z,8.90
2019-05-23T01:15:31.766Z,8.89
2019-05-23T01:18:28.487Z,8.88
2019-05-23T01:21:46.985Z,8.88
2019-05-23T01:24:45.573Z,8.87
2019-05-23T01:27:43.191Z,8.87
2019-05-23T01:30:43.593Z,8.83
2019-05-23T01:33:40.217Z,8.79
2019-05-23T01:36:37.771Z,8.78
2019-05-23T01:39:35.108Z,8.79
2019-05-23T01:42:32.568Z,8.79
2019-05-23T01:45:29.317Z,8.79
2019-05-23T01:48:25.849Z,8.78
2019-05-23T01:51:22.587Z,8.75
2019-05-23T01:54:18.725Z,8.74
2019-05-23T01:57:15.304Z,8.68
2019-05-23T02:00:12.189Z,8.62
2019-05-23T02:03:09.023Z,8.59
2019-05-23T02:06:05.411Z,8.59
2019-05-23T02:09:03.107Z,8.56
2019-05-23T02:11:59.879Z,8.48
2019-05-23T02:14:57.456Z,8.49
2019-05-23T02:17:55.237Z,8.46
2019-05-23T02:20:55.014Z,8.46
2019-05-23T02:23:51.683Z,8.46
2019-05-23T02:26:47.811Z,8.43
2019-05-23T02:29:45.425Z,8.43
2019-05-23T02:32:48.185Z,8.43
2019-05-23T02:35:45.544Z,8.44
2019-05-23T02:38:57.250Z,8.43
2019-05-23T02:42:08.134Z,8.41
2019-05-23T02:45:06.005Z,8.38
2019-05-23T02:48:02.697Z,8.35
2019-05-23T02:51:03.195Z,8.30
2019-05-23T02:54:05.609Z,8.24
2019-05-23T02:57:02.206Z,8.17
2019-05-23T03:00:11.344Z,8.10
2019-05-23T03:03:10.990Z,8.04
2019-05-23T03:06:15.962Z,8.02
2019-05-23T03:09:13.780Z,7.94
2019-05-23T03:12:11.212Z,8.00
2019-05-23T03:15:09.631Z,8.07
2019-05-23T03:18:11.478Z,8.11
2019-05-23T03:21:07.994Z,8.11
2019-05-23T03:24:09.709Z,8.09
2019-05-23T03:27:26.281Z,8.06
2019-05-23T03:30:32.590Z,8.10
2019-05-23T03:33:28.057Z,8.14
2019-05-23T03:36:25.832Z,8.14
2019-05-23T03:39:22.412Z,8.12
2019-05-23T03:42:18.973Z,8.08
2019-05-23T03:45:16.457Z,8.05
2019-05-23T03:48:12.961Z,8.04
2019-05-23T03:51:10.637Z,8.05
2019-05-23T03:54:07.477Z,8.02
2019-05-23T03:57:04.312Z,8.08
2019-05-23T04:00:01.074Z,8.11
2019-05-23T04:02:57.677Z,8.13
2019-05-23T04:06:01.456Z,8.13
2019-05-23T04:08:57.991Z,8.09
2019-05-23T04:11:55.223Z,8.08
2019-05-23T04:14:51.780Z,8.08
2019-05-23T04:17:49.557Z,8.12
2019-05-23T04:20:47.084Z,8.15
2019-05-23T04:23:43.671Z,8.09
2019-05-23T04:26:41.346Z,8.05
2019-05-23T04:29:38.065Z,8.05
2019-05-23T04:32:38.183Z,8.10
2019-05-23T04:35:34.873Z,8.16
2019-05-23T04:38:35.866Z,8.22
2019-05-23T04:41:31.231Z,8.23
2019-05-23T04:44:35.229Z,8.23
2019-05-23T04:47:48.439Z,8.24
2019-05-23T04:50:38.582Z,8.23
2019-05-23T04:53:35.630Z,8.29
2019-05-23T04:56:36.571Z,8.36
2019-05-23T04:59:33.291Z,8.43
2019-05-23T05:02:30.998Z,8.47
2019-05-23T05:05:27.818Z,8.46
2019-05-23T05:08:25.680Z,8.54
2019-05-23T05:11:22.334Z,8.58
2019-05-23T05:14:25.376Z,8.63
2019-05-23T05:17:27.554Z,8.70
2019-05-23T05:20:37.753Z,8.72
2019-05-23T05:23:45.431Z,8.76
2019-05-23T05:26:49.681Z,8.83
2019-05-23T05:29:45.691Z,8.89
2019-05-23T05:32:45.543Z,8.95
2019-05-23T05:35:39.890Z,9.01
2019-05-23T05:38:37.570Z,9.08
2019-05-23T05:41:35.735Z,9.13
2019-05-23T05:44:33.277Z,9.20
2019-05-23T05:47:30.865Z,9.30
2019-05-23T05:50:27.383Z,9.38
2019-05-23T05:53:24.299Z,9.45
2019-05-23T05:56:21.534Z,9.52
2019-05-23T05:59:18.059Z,9.59
2019-05-23T06:02:18.059Z,9.63
2019-05-23T06:05:14.610Z,9.72
2019-05-23T06:08:15.982Z,9.83
2019-05-23T06:11:12.619Z,9.91
2019-05-23T06:14:09.713Z,10.00
2019-05-23T06:17:05.073Z,10.12
2019-05-23T06:20:02.127Z,10.22
2019-05-23T06:23:00.605Z,10.32
2019-05-23T06:25:55.232Z,10.45
2019-05-23T06:28:53.065Z,10.56
2019-05-23T06:31:49.386Z,10.65
2019-05-23T06:34:51.360Z,10.77
2019-05-23T06:37:48.059Z,10.85
2019-05-23T06:40:52.890Z,10.93
2019-05-23T06:43:50.586Z,11.02
2019-05-23T06:46:48.215Z,11.09
2019-05-23T06:49:46.155Z,11.13
2019-05-23T06:52:42.493Z,11.17
2019-05-23T06:55:40.343Z,11.27
2019-05-23T06:58:36.314Z,11.36
2019-05-23T07:01:32.856Z,11.42
2019-05-23T07:04:30.708Z,11.51
2019-05-23T07:07:26.253Z,11.53
2019-05-23T07:10:23.016Z,11.63
2019-05-23T07:13:20.004Z,11.74
2019-05-23T07:16:16.390Z,11.83
2019-05-23T07:19:14.291Z,11.93
2019-05-23T07:22:10.445Z,12.08
2019-05-23T07:25:08.333Z,12.21
2019-05-23T07:28:06.283Z,12.31
2019-05-23T07:31:13.258Z,12.34
2019-05-23T07:34:17.271Z,12.39
2019-05-23T07:37:19.466Z,12.50
2019-05-23T07:40:17.393Z,12.53
2019-05-23T07:43:14.760Z,12.63
2019-05-23T07:46:12.048Z,12.73
2019-05-23T07:49:08.760Z,12.71
2019-05-23T07:52:06.700Z,12.81
2019-05-23T07:55:11.313Z,12.86
2019-05-23T07:58:07.910Z,12.87
2019-05-23T08:01:07.208Z,12.91
2019-05-23T08:04:19.925Z,12.99
2019-05-23T08:07:01.548Z,13.09
2019-05-23T08:09:59.310Z,13.13
2019-05-23T08:12:55.454Z,13.24
2019-05-23T08:15:53.004Z,13.31
2019-05-23T08:18:49.566Z,13.26
2019-05-23T08:21:47.352Z,13.17
2019-05-23T08:24:43.459Z,13.16
2019-05-23T08:27:39.754Z,13.13
2019-05-23T08:30:37.503Z,13.06
2019-05-23T08:33:34.164Z,13.06
2019-05-23T08:36:32.137Z,13.25
2019-05-23T08:39:28.605Z,13.56
2019-05-23T08:42:26.947Z,13.88
2019-05-23T08:45:33.010Z,14.13
2019-05-23T08:48:29.030Z,14.38
2019-05-23T08:51:26.645Z,14.58
2019-05-23T08:54:23.238Z,14.74
2019-05-23T08:57:19.903Z,14.73
2019-05-23T09:00:16.159Z,14.76
2019-05-23T09:03:12.754Z,14.82
2019-05-23T09:06:11.786Z,14.84
2019-05-23T09:09:27.920Z,14.93
2019-05-23T09:12:05.884Z,14.98
2019-05-23T09:15:03.719Z,15.07
2019-05-23T09:18:00.267Z,15.14
2019-05-23T09:20:57.786Z,15.09
2019-05-23T09:23:54.472Z,14.98
2019-05-23T09:26:52.115Z,14.84
2019-05-23T09:29:48.274Z,14.86
2019-05-23T09:32:44.932Z,15.00
2019-05-23T09:35:42.737Z,15.03
2019-05-23T09:38:39.401Z,15.04
2019-05-23T09:41:36.078Z,15.12
2019-05-23T09:44:33.048Z,15.28
2019-05-23T09:47:29.352Z,15.47
2019-05-23T09:50:25.677Z,15.49
2019-05-23T09:53:31.230Z,15.49
2019-05-23T09:56:34.864Z,15.36
2019-05-23T09:59:31.489Z,15.09
2019-05-23T10:02:27.745Z,14.91
2019-05-23T10:05:40.988Z,14.80
2019-05-23T10:08:20.997Z,14.88
2019-05-23T10:11:16.876Z,15.06
2019-05-23T10:14:14.472Z,15.21
2019-05-23T10:17:11.355Z,15.55
2019-05-23T10:20:08.025Z,15.91
2019-05-23T10:23:04.637Z,16.26
2019-05-23T10:26:00.138Z,16.46
2019-05-23T10:28:56.932Z,16.64
2019-05-23T10:31:52.222Z,16.80
2019-05-23T10:34:48.705Z,16.83
2019-05-23T10:37:45.344Z,16.85
2019-05-23T10:40:41.171Z,16.75
2019-05-23T10:43:37.718Z,16.78
2019-05-23T10:46:34.507Z,16.72
2019-05-23T10:49:32.068Z,16.56
2019-05-23T10:52:28.154Z,16.35
2019-05-23T10:55:34.492Z,16.18
2019-05-23T10:58:31.349Z,16.13
2019-05-23T11:01:27.069Z,16.20
2019-05-23T11:04:24.952Z,16.37
2019-05-23T11:07:21.842Z,16.53
2019-05-23T11:10:19.572Z,16.74
2019-05-23T11:13:16.086Z,16.87
2019-05-23T11:16:13.709Z,17.00
2019-05-23T11:19:11.584Z,17.07
2019-05-23T11:22:08.223Z,17.13
2019-05-23T11:25:05.141Z,17.19
2019-05-23T11:28:00.878Z,17.21
2019-05-23T11:31:03.416Z,17.15
2019-05-23T11:34:01.091Z,17.16
2019-05-23T11:36:57.453Z,17.44
2019-05-23T11:39:56.080Z,17.58
2019-05-23T11:42:52.854Z,17.39
2019-05-23T11:45:52.558Z,17.16
2019-05-23T11:48:48.135Z,17.13
2019-05-23T11:51:45.761Z,17.18
2019-05-23T11:54:42.594Z,17.40
2019-05-23T11:57:38.880Z,17.60
2019-05-23T12:00:38.018Z,17.63
2019-05-23T12:03:34.534Z,17.85
2019-05-23T12:06:53.179Z,18.02
2019-05-23T12:09:36.329Z,18.21
2019-05-23T12:12:33.364Z,18.21
2019-05-23T12:15:35.713Z,18.13
2019-05-23T12:18:31.940Z,18.21
2019-05-23T12:21:29.898Z,18.33
2019-05-23T12:24:26.640Z,18.45
2019-05-23T12:27:24.599Z,18.57
2019-05-23T12:30:21.064Z,18.63
2019-05-23T12:33:17.641Z,18.67
2019-05-23T12:36:14.097Z,18.83
2019-05-23T12:39:10.716Z,18.75
2019-05-23T12:42:06.580Z,18.74
2019-05-23T12:45:01.670Z,18.93
2019-05-23T12:48:10.936Z,19.22
2019-05-23T12:51:08.441Z,19.24
2019-05-23T12:54:05.488Z,19.03
2019-05-23T12:57:01.898Z,18.98
2019-05-23T12:59:59.327Z,19.09
2019-05-23T13:02:57.019Z,19.02
2019-05-23T13:06:06.161Z,19.15
2019-05-23T13:09:03.807Z,19.31
2019-05-23T13:12:00.553Z,19.44
2019-05-23T13:14:58.835Z,19.42
2019-05-23T13:17:55.593Z,19.29
2019-05-23T13:20:58.810Z,19.39
2019-05-23T13:23:52.224Z,19.58
2019-05-23T13:26:50.062Z,19.78
2019-05-23T13:29:46.575Z,19.97
2019-05-23T13:32:44.147Z,20.16
2019-05-23T13:35:40.415Z,20.26
2019-05-23T13:38:36.554Z,20.36
2019-05-23T13:41:34.113Z,20.47
2019-05-23T13:44:35.182Z,20.43
2019-05-23T13:47:28.286Z,20.45
2019-05-23T13:50:24.833Z,20.75
2019-05-23T13:53:21.688Z,20.85
2019-05-23T13:56:18.589Z,21.05
2019-05-23T13:59:15.425Z,21.13
2019-05-23T14:02:12.129Z,21.57
2019-05-23T14:05:08.494Z,22.06
2019-05-23T14:08:12.387Z,22.53
2019-05-23T14:11:03.073Z,23.19
2019-05-23T14:14:02.182Z,23.55
2019-05-23T14:17:13.666Z,23.97
2019-05-23T14:20:09.979Z,24.34
2019-05-23T14:23:10.895Z,24.44
2019-05-23T14:26:07.313Z,24.63
2019-05-23T14:29:11.163Z,25.05
2019-05-23T14:32:20.436Z,24.83
2019-05-23T14:35:17.066Z,25.13
2019-05-23T14:38:29.589Z,25.37
2019-05-23T14:41:10.631Z,24.81
2019-05-23T14:44:09.168Z,25.10
2019-05-23T14:47:23.102Z,25.66
2019-05-23T14:50:32.264Z,25.87
2019-05-23T14:53:30.150Z,26.27
2019-05-23T14:56:25.799Z,25.82
2019-05-23T14:59:21.281Z,25.57
2019-05-23T15:02:20.548Z,25.78
2019-05-23T15:05:18.004Z,25.34
2019-05-23T15:08:14.200Z,25.61
2019-05-23T15:11:10.977Z,25.68
2019-05-23T15:14:09.935Z,25.89
2019-05-23T15:17:06.658Z,25.92
2019-05-23T15:20:05.112Z,25.81
2019-05-23T15:23:00.685Z,25.81
2019-05-23T15:25:58.362Z,25.91
2019-05-23T15:28:54.980Z,25.84
2019-05-23T15:32:01.905Z,25.80
2019-05-23T15:34:48.083Z,26.06
2019-05-23T15:37:44.943Z,26.12
2019-05-23T15:40:41.798Z,26.05
2019-05-23T15:43:38.551Z,25.97
2019-05-23T15:46:35.341Z,25.90
2019-05-23T15:49:32.928Z,25.66
2019-05-23T15:52:40.946Z,25.50
2019-05-23T15:55:54.293Z,25.63
2019-05-23T15:59:03.218Z,25.64
2019-05-23T16:02:18.787Z,25.45
2019-05-23T16:05:16.103Z,25.33
2019-05-23T16:08:11.651Z,25.27
2019-05-23T16:11:08.271Z,25.38
2019-05-23T16:14:04.810Z,24.66
2019-05-23T16:17:02.120Z,24.66
2019-05-23T16:19:59.665Z,24.53
2019-05-23T16:22:55.936Z,24.07
2019-05-23T16:25:52.140Z,23.38
2019-05-23T16:28:49.011Z,22.70
2019-05-23T16:31:46.801Z,22.23
2019-05-23T16:34:44.556Z,21.72
2019-05-23T16:37:41.414Z,21.37
2019-05-23T16:40:43.397Z,21.31
2019-05-23T16:43:40.013Z,21.15
2019-05-23T16:46:43.794Z,20.94
2019-05-23T16:49:40.714Z,20.76
2019-05-23T16:52:38.519Z,20.69
2019-05-23T16:55:52.592Z,20.52
2019-05-23T16:59:06.315Z,20.33
2019-05-23T17:02:19.185Z,20.15
2019-05-23T17:05:30.862Z,19.97
2019-05-23T17:08:44.861Z,19.76
2019-05-23T17:11:56.830Z,19.63
2019-05-23T17:14:59.837Z,19.56
2019-05-23T17:18:09.930Z,19.39
2019-05-23T17:21:33.274Z,19.32
2019-05-23T17:24:41.242Z,19.24
2019-05-23T17:28:01.142Z,19.19
2019-05-23T17:35:06.673Z,18.95
2019-05-23T17:37:37.029Z,18.84
2019-05-23T17:40:23.197Z,18.77
2019-05-23T17:42:39.811Z,18.69
2019-05-23T17:45:14.021Z,18.65
2019-05-23T17:47:42.601Z,18.59
2019-05-23T17:50:12.941Z,18.51
2019-05-23T17:52:43.282Z,18.47
2019-05-23T17:55:13.368Z,18.43
2019-05-23T17:57:43.528Z,18.32
2019-05-23T18:00:16.046Z,18.24
2019-05-23T18:02:46.308Z,18.22
2019-05-23T18:05:16.405Z,18.16
2019-05-23T18:07:46.625Z,18.10
2019-05-23T18:10:18.917Z,18.02
2019-05-23T18:12:49.430Z,17.94
2019-05-23T18:15:19.817Z,17.89
2019-05-23T18:17:50.218Z,17.84
2019-05-23T18:20:23.379Z,17.77
2019-05-23T18:22:54.518Z,17.70
2019-05-23T18:25:26.625Z,17.63
2019-05-23T18:27:56.814Z,17.56
2019-05-23T18:30:51.916Z,17.48
2019-05-23T18:33:23.992Z,17.40
2019-05-23T18:35:54.696Z,17.32
2019-05-23T18:38:25.525Z,17.14
2019-05-23T18:41:03.121Z,17.14
2019-05-23T18:43:29.407Z,17.07
2019-05-23T18:46:02.316Z,16.95
2019-05-23T18:48:32.837Z,16.87
2019-05-23T18:51:10.289Z,16.79
2019-05-23T18:53:54.654Z,16.75
2019-05-23T18:56:42.368Z,16.67
2019-05-23T18:59:53.403Z,16.59
2019-05-23T19:02:42.011Z,16.49
2019-05-23T19:05:25.386Z,16.41
2019-05-23T19:08:01.918Z,16.33
2019-05-23T19:10:43.209Z,16.24
2019-05-23T19:13:16.303Z,16.13
2019-05-23T19:15:54.983Z,16.05
2019-05-23T19:18:30.924Z,15.98
2019-05-23T19:21:04.177Z,15.85
2019-05-23T19:23:40.368Z,15.80
2019-05-23T19:26:16.898Z,15.72
2019-05-23T19:28:56.454Z,15.67
2019-05-23T19:31:32.823Z,15.59
2019-05-23T19:34:08.183Z,15.51
2019-05-23T19:36:42.065Z,15.43
2019-05-23T19:39:15.833Z,15.35
2019-05-23T19:41:46.063Z,15.26
2019-05-23T19:44:20.022Z,15.16
2019-05-23T19:46:50.304Z,15.07
2019-05-23T19:49:27.270Z,14.98
2019-05-23T19:52:07.927Z,14.90
2019-05-23T19:54:40.222Z,14.79
2019-05-23T19:57:10.626Z,14.75
2019-05-23T19:59:41.335Z,14.68
2019-05-23T20:02:29.084Z,14.61
2019-05-23T20:05:07.962Z,14.50
2019-05-23T20:07:39.921Z,14.48
2019-05-23T20:10:10.932Z,14.42
2019-05-23T20:12:41.226Z,14.37
2019-05-23T20:44:55.003Z,13.36
2019-05-23T20:47:27.658Z,13.43
2019-05-23T20:49:59.489Z,13.37
2019-05-23T20:52:31.272Z,13.31
2019-05-23T20:55:02.316Z,13.26
2019-05-23T20:57:32.705Z,13.22
2019-05-23T21:00:03.724Z,13.17
2019-05-23T21:02:34.735Z,13.10
2019-05-23T21:05:05.463Z,13.06
2019-05-23T21:07:37.154Z,13.04
2019-05-23T21:10:07.784Z,12.98
2019-05-23T21:12:39.492Z,12.91
2019-05-23T21:15:11.985Z,12.86
2019-05-23T21:17:42.194Z,12.81
2019-05-23T21:20:12.536Z,12.75
2019-05-23T21:22:43.759Z,12.69
2019-05-23T21:25:14.768Z,12.62
2019-05-23T21:27:46.623Z,12.56
2019-05-23T21:30:16.929Z,12.50
2019-05-23T21:32:47.186Z,12.44
2019-05-23T21:35:17.621Z,12.42
2019-05-23T21:37:49.473Z,12.38
2019-05-23T21:40:40.280Z,12.30
2019-05-23T22:03:45.118Z,11.94
2019-05-23T22:06:18.700Z,11.85
2019-05-23T22:08:50.611Z,11.83
2019-05-23T22:11:21.107Z,11.82
2019-05-23T22:13:52.100Z,11.78
2019-05-23T22:16:24.391Z,11.74
2019-05-23T22:18:55.386Z,11.72
2019-05-23T22:21:26.484Z,11.66
2019-05-23T22:23:56.772Z,11.64
2019-05-23T22:26:27.903Z,11.61
2019-05-23T22:28:58.378Z,11.58
2019-05-23T22:31:29.535Z,11.55
2019-05-23T22:34:21.699Z,11.51
2019-05-23T23:09:08.031Z,11.01
2019-05-23T23:11:41.189Z,10.95
2019-05-23T23:14:13.393Z,10.92
2019-05-23T23:16:43.638Z,10.91
2019-05-23T23:19:15.004Z,10.90
2019-05-23T23:21:46.083Z,10.89
2019-05-23T23:37:18.192Z,10.70
2019-05-23T23:39:50.285Z,10.70
2019-05-23T23:42:20.694Z,10.69
2019-05-23T23:44:51.506Z,10.66
2019-05-23T23:47:39.863Z,10.61
2019-05-23T23:50:28.834Z,10.58
2019-05-23T23:53:16.641Z,10.53
2019-05-23T23:56:05.109Z,10.48
2019-05-23T23:58:34.413Z,10.44
